Time;durP1;ratioP1;P1;durP2;ratioP2;P2;SDS_P1;SDS_P2;PMS_P1;PMS_P2;Temp;Humidity;BMP_temperature;BMP_pressure;BME280_temperature;BME280_humidity;BME280_pressure;Samples;Min_cycle;Max_cycle;Signal;HPM_P1;HPM_P2
2021/11/23 00:00:15;;;;;;;6.08;3.42;;;;;;;4.59;52.96;100871.23;1821968;78;21065;-68
2021/11/23 00:02:42;;;;;;;7.95;4.10;;;;;;;4.57;52.96;100877.23;1822195;78;20932;-68
2021/11/23 00:05:11;;;;;;;6.45;3.95;;;;;;;4.71;52.62;100876.69;1815060;78;21014;-69
2021/11/23 00:07:38;;;;;;;7.78;4.65;;;;;;;4.59;52.86;100881.00;1822134;78;21050;-68
2021/11/23 00:10:06;;;;;;;7.90;4.33;;;;;;;4.70;52.68;100877.20;1821983;78;22199;-69
2021/11/23 00:12:33;;;;;;;7.83;4.62;;;;;;;4.74;52.57;100879.41;1822012;78;21118;-68
2021/11/23 00:15:00;;;;;;;6.42;3.52;;;;;;;4.63;52.67;100876.91;1822148;78;21506;-68
2021/11/23 00:17:27;;;;;;;7.15;3.58;;;;;;;4.72;52.48;100866.91;1821964;78;20992;-68
2021/11/23 00:19:54;;;;;;;6.10;3.52;;;;;;;4.63;52.56;100873.75;1821204;78;21450;-69
2021/11/23 00:22:21;;;;;;;8.90;4.12;;;;;;;4.70;52.20;100883.82;1797862;78;21124;-68
2021/11/23 00:24:48;;;;;;;7.00;4.03;;;;;;;4.58;52.35;100892.62;1792315;80;20942;-68
2021/11/23 00:27:17;;;;;;;7.17;4.00;;;;;;;4.57;52.33;100894.94;1791056;79;21025;-68
2021/11/23 00:29:44;;;;;;;6.83;3.80;;;;;;;4.69;52.12;100890.63;1792017;78;21039;-68
2021/11/23 00:32:11;;;;;;;6.35;3.58;;;;;;;4.72;52.09;100883.59;1793178;78;21017;-68
2021/11/23 00:34:37;;;;;;;8.45;3.83;;;;;;;4.73;51.96;100888.37;1793123;78;21968;-69
2021/11/23 00:37:04;;;;;;;8.30;4.15;;;;;;;4.64;52.10;100879.84;1791936;80;20986;-69
2021/11/23 00:39:31;;;;;;;8.00;4.50;;;;;;;4.72;52.09;100888.08;1793275;78;21492;-69
2021/11/23 00:41:57;;;;;;;7.97;4.30;;;;;;;4.66;52.22;100886.56;1792183;80;21025;-69
2021/11/23 00:44:24;;;;;;;7.22;4.20;;;;;;;4.75;52.02;100880.53;1792222;80;21107;-69
2021/11/23 00:46:51;;;;;;;7.55;3.90;;;;;;;4.67;52.17;100879.43;1792018;80;21135;-69
2021/11/23 00:49:18;;;;;;;7.42;3.70;;;;;;;4.67;51.95;100885.56;1791930;80;21033;-69
2021/11/23 00:51:45;;;;;;;6.78;3.67;;;;;;;4.52;52.11;100894.77;1792335;80;20989;-69
2021/11/23 00:54:11;;;;;;;6.95;3.65;;;;;;;4.45;52.16;100890.31;1792367;79;21072;-68
2021/11/23 00:56:39;;;;;;;6.83;3.65;;;;;;;4.37;52.23;100889.20;1792031;80;20930;-68
2021/11/23 00:59:06;;;;;;;5.60;3.22;;;;;;;4.36;52.20;100902.64;1792367;80;21418;-68
2021/11/23 01:01:33;;;;;;;6.42;3.55;;;;;;;4.28;52.38;100913.42;1792146;79;21057;-69
2021/11/23 01:03:59;;;;;;;5.72;3.30;;;;;;;4.26;52.29;100913.64;1792245;80;21037;-68
2021/11/23 01:06:26;;;;;;;6.35;3.47;;;;;;;4.20;52.36;100920.56;1792276;79;21528;-68
2021/11/23 01:08:54;;;;;;;7.78;3.77;;;;;;;4.15;52.45;100916.41;1792339;79;21448;-68
2021/11/23 01:11:21;;;;;;;6.08;3.52;;;;;;;4.05;52.68;100919.15;1792411;80;21080;-68
2021/11/23 01:13:48;;;;;;;6.22;3.50;;;;;;;4.07;52.68;100921.09;1791967;79;21056;-68
2021/11/23 01:16:16;;;;;;;6.20;3.90;;;;;;;3.96;52.91;100914.59;1792356;80;20938;-68
2021/11/23 01:18:44;;;;;;;8.35;4.10;;;;;;;3.98;52.95;100913.38;1792303;79;21104;-69
2021/11/23 01:21:13;;;;;;;11.95;4.67;;;;;;;3.98;53.02;100922.64;1792298;79;21098;-68
2021/11/23 01:23:41;;;;;;;9.80;5.12;;;;;;;4.02;52.92;100919.59;1792069;79;21159;-68
2021/11/23 01:26:08;;;;;;;9.93;4.87;;;;;;;4.05;52.93;100919.15;1792102;79;21085;-68
2021/11/23 01:28:36;;;;;;;12.00;5.60;;;;;;;4.04;52.88;100926.27;1792195;78;21154;-68
2021/11/23 01:31:03;;;;;;;11.50;5.28;;;;;;;3.96;53.11;100931.27;1792120;79;20964;-68
2021/11/23 01:33:30;;;;;;;9.03;4.75;;;;;;;4.05;52.97;100936.33;1792273;79;21031;-68
2021/11/23 01:35:56;;;;;;;7.85;4.25;;;;;;;3.95;53.11;100934.12;1792543;79;21101;-69
2021/11/23 01:38:23;;;;;;;6.50;4.20;;;;;;;3.97;53.25;100928.11;1792186;79;20964;-69
2021/11/23 01:40:50;;;;;;;7.85;4.22;;;;;;;3.97;53.15;100935.52;1792391;79;21466;-68
2021/11/23 01:43:17;;;;;;;9.35;4.40;;;;;;;3.85;53.30;100934.53;1792275;79;21055;-68
2021/11/23 01:45:44;;;;;;;7.50;4.25;;;;;;;3.90;53.02;100929.95;1792227;79;21039;-69
2021/11/23 01:48:11;;;;;;;8.05;3.98;;;;;;;3.82;52.93;100929.65;1792270;79;21183;-69
2021/11/23 01:50:38;;;;;;;7.15;3.60;;;;;;;3.76;52.97;100925.17;1792105;79;20995;-69
2021/11/23 01:53:07;;;;;;;6.55;3.98;;;;;;;3.61;53.14;100927.19;1792216;79;21070;-69
2021/11/23 01:55:35;;;;;;;7.33;4.20;;;;;;;3.56;53.17;100925.67;1792389;79;20979;-69
2021/11/23 01:58:05;;;;;;;8.40;4.37;;;;;;;3.45;53.27;100927.86;1792218;79;21031;-69
2021/11/23 02:00:34;;;;;;;9.13;5.37;;;;;;;3.42;53.35;100929.61;1795642;78;22686;-69
2021/11/23 02:03:02;;;;;;;9.80;4.25;;;;;;;3.40;53.41;100932.95;1819850;78;21047;-69
2021/11/23 02:05:28;;;;;;;9.40;4.45;;;;;;;3.28;53.59;100934.03;1821887;78;20952;-69
2021/11/23 02:07:55;;;;;;;8.28;4.67;;;;;;;3.27;53.67;100933.73;1821817;78;21018;-69
2021/11/23 02:10:22;;;;;;;9.53;5.03;;;;;;;3.28;53.70;100933.22;1821796;78;21478;-69
2021/11/23 02:12:51;;;;;;;8.30;4.58;;;;;;;3.29;53.68;100933.03;1822045;78;21141;-69
2021/11/23 02:15:17;;;;;;;8.60;4.95;;;;;;;3.26;53.83;100929.98;1822293;78;21062;-69
2021/11/23 02:17:47;;;;;;;9.98;5.05;;;;;;;3.30;53.80;100935.16;1820135;78;21081;-69
2021/11/23 02:20:19;;;;;;;7.33;4.40;;;;;;;3.11;54.13;100928.81;1792071;80;20961;-69
2021/11/23 02:22:46;;;;;;;7.72;4.90;;;;;;;3.25;54.03;100933.10;1792284;79;21492;-69
2021/11/23 02:25:15;;;;;;;9.73;4.60;;;;;;;3.16;54.21;100932.16;1792368;79;21301;-68
2021/11/23 02:27:42;;;;;;;7.08;4.28;;;;;;;3.14;54.26;100935.52;1791951;78;21502;-69
2021/11/23 02:30:11;;;;;;;6.90;3.50;;;;;;;3.27;54.11;100938.20;1792548;79;21047;-68
2021/11/23 02:32:52;;;;;;;7.37;4.20;;;;;;;3.23;54.05;100940.94;1793311;78;20986;-68
2021/11/23 02:35:16;;;;;;;7.65;3.85;;;;;;;3.30;53.91;100941.77;1792298;79;20969;-68
2021/11/23 02:37:48;;;;;;;7.40;4.53;;;;;;;3.15;54.04;100937.14;1792391;80;21777;-69
2021/11/23 02:40:16;;;;;;;7.78;4.58;;;;;;;3.27;53.78;100942.97;1791639;79;21050;-68
2021/11/23 02:42:42;;;;;;;6.95;4.15;;;;;;;3.28;53.69;100942.45;1792248;80;21040;-68
2021/11/23 02:45:10;;;;;;;6.97;3.80;;;;;;;3.29;53.70;100946.23;1792548;79;21120;-68
2021/11/23 02:47:38;;;;;;;5.58;3.45;;;;;;;3.14;53.82;100952.68;1792202;80;21017;-68
2021/11/23 02:50:08;;;;;;;7.42;3.65;;;;;;;3.11;53.71;100957.84;1792349;79;21094;-69
2021/11/23 02:52:34;;;;;;;5.58;3.12;;;;;;;3.18;53.48;100961.83;1792296;80;21054;-68
2021/11/23 02:55:03;;;;;;;7.95;4.37;;;;;;;3.15;53.41;100952.98;1792281;79;21002;-68
2021/11/23 02:57:32;;;;;;;7.00;3.85;;;;;;;3.09;53.48;100947.17;1792714;79;21033;-67
2021/11/23 02:59:59;;;;;;;7.47;4.20;;;;;;;2.99;53.57;100950.17;1792858;79;21017;-68
2021/11/23 03:02:26;;;;;;;5.97;3.35;;;;;;;2.78;53.93;100955.06;1792202;80;21066;-68
2021/11/23 03:04:56;;;;;;;6.72;3.45;;;;;;;2.81;53.87;100953.36;1792642;79;21049;-68
2021/11/23 03:07:24;;;;;;;6.33;3.90;;;;;;;2.74;53.98;100948.05;1792324;79;21507;-69
2021/11/23 03:09:51;;;;;;;6.62;3.62;;;;;;;2.67;54.10;100951.16;1792375;79;21037;-68
2021/11/23 03:12:22;;;;;;;7.03;3.87;;;;;;;2.44;54.45;100955.39;1792232;79;20997;-68
2021/11/23 03:14:49;;;;;;;7.72;5.42;;;;;;;2.49;54.33;100956.93;1760366;80;21058;-67
2021/11/23 03:17:18;;;;;;;10.05;5.97;;;;;;;2.42;54.48;100963.18;1792261;80;21016;-68
2021/11/23 03:19:46;;;;;;;8.93;5.58;;;;;;;2.23;54.83;100965.98;1800869;78;20956;-68
2021/11/23 03:22:13;;;;;;;9.18;5.83;;;;;;;2.23;54.91;100965.48;1821966;78;21138;-68
2021/11/23 03:24:40;;;;;;;8.33;5.78;;;;;;;2.09;55.18;100972.98;1821614;78;20952;-68
2021/11/23 03:27:09;;;;;;;8.70;5.47;;;;;;;2.17;55.16;100972.02;1808442;79;21124;-69
2021/11/23 03:29:37;;;;;;;8.95;6.00;;;;;;;2.12;55.22;100977.88;1727391;83;21054;-69
2021/11/23 03:32:06;;;;;;;9.45;5.80;;;;;;;2.10;55.34;100980.68;1748558;81;21078;-69
2021/11/23 03:34:37;;;;;;;8.75;5.30;;;;;;;2.01;55.64;100971.30;1746965;82;21026;-69
2021/11/23 03:37:08;;;;;;;9.30;5.30;;;;;;;2.13;55.50;100968.95;1746473;82;21010;-68
2021/11/23 03:39:36;;;;;;;8.08;4.33;;;;;;;2.05;55.70;100971.73;1746494;82;21112;-69
2021/11/23 03:42:04;;;;;;;7.30;4.90;;;;;;;2.17;55.47;100972.83;1746283;82;21082;-69
2021/11/23 03:44:32;;;;;;;6.75;4.33;;;;;;;2.15;55.43;100974.05;1747363;81;21043;-69
2021/11/23 03:46:59;;;;;;;7.22;4.47;;;;;;;2.08;55.51;100972.67;1746837;81;21527;-69
2021/11/23 03:49:26;;;;;;;7.87;4.33;;;;;;;1.93;55.86;100975.38;1746753;81;22468;-68
2021/11/23 03:51:54;;;;;;;8.13;4.80;;;;;;;2.06;55.68;100974.17;1746967;81;21207;-69
2021/11/23 03:54:23;;;;;;;6.80;4.22;;;;;;;2.10;55.62;100968.82;1746599;82;21128;-69
2021/11/23 03:56:50;;;;;;;7.85;4.40;;;;;;;2.11;55.60;100969.16;1747179;81;21066;-69
2021/11/23 03:59:17;;;;;;;6.58;4.12;;;;;;;2.02;55.91;100972.92;1746498;82;20999;-69
2021/11/23 04:01:44;;;;;;;9.35;5.20;;;;;;;2.18;55.76;100967.89;1746396;82;21179;-69
2021/11/23 04:04:11;;;;;;;12.00;5.67;;;;;;;2.25;55.78;100961.34;1747205;81;22157;-69
2021/11/23 04:06:38;;;;;;;15.43;7.03;;;;;;;2.15;55.99;100966.95;1746573;82;21478;-68
2021/11/23 04:09:05;;;;;;;13.62;6.55;;;;;;;2.21;55.90;100960.11;1746330;82;21046;-68
2021/11/23 04:11:31;;;;;;;11.38;6.17;;;;;;;2.31;55.70;100963.22;1746370;81;20975;-69
2021/11/23 04:13:59;;;;;;;12.35;6.17;;;;;;;2.35;55.67;100960.50;1746557;82;21580;-69
2021/11/23 04:16:26;;;;;;;15.88;7.92;;;;;;;2.37;55.76;100957.66;1746664;82;21224;-69
2021/11/23 04:18:54;;;;;;;12.07;6.40;;;;;;;2.32;55.84;100958.25;1746262;82;20999;-68
2021/11/23 04:21:21;;;;;;;13.03;6.58;;;;;;;2.13;56.27;100955.78;1760127;81;21047;-69
2021/11/23 04:23:48;;;;;;;13.10;6.22;;;;;;;2.28;56.06;100958.33;1752790;81;20974;-69
2021/11/23 04:26:15;;;;;;;13.62;6.42;;;;;;;2.33;55.95;100954.59;1764342;79;20968;-69
2021/11/23 04:28:42;;;;;;;11.73;6.47;;;;;;;2.46;55.75;100950.72;1763985;81;21149;-69
2021/11/23 04:31:09;;;;;;;11.55;5.85;;;;;;;2.52;55.75;100952.59;1763790;81;21042;-69
2021/11/23 04:33:36;;;;;;;10.85;6.22;;;;;;;2.55;55.81;100952.20;1764067;81;20995;-69
2021/11/23 04:36:04;;;;;;;12.73;6.15;;;;;;;2.56;55.92;100952.50;1764291;81;21557;-69
2021/11/23 04:38:31;;;;;;;11.88;6.28;;;;;;;2.57;55.98;100954.16;1764178;81;21431;-69
2021/11/23 04:40:58;;;;;;;12.55;6.42;;;;;;;2.58;56.01;100953.64;1764176;81;21153;-69
2021/11/23 04:43:25;;;;;;;13.13;6.25;;;;;;;2.61;56.07;100956.41;1764041;81;21016;-69
2021/11/23 04:45:52;;;;;;;11.90;6.58;;;;;;;2.65;56.08;100955.00;1764308;81;21011;-69
2021/11/23 04:48:19;;;;;;;9.55;6.22;;;;;;;2.67;56.14;100951.67;1764038;81;21026;-69
2021/11/23 04:50:46;;;;;;;11.97;6.72;;;;;;;2.68;56.26;100950.66;1764253;81;21459;-69
2021/11/23 04:53:13;;;;;;;11.43;6.67;;;;;;;2.69;56.36;100947.81;1764100;81;22104;-69
2021/11/23 04:55:41;;;;;;;10.13;5.90;;;;;;;2.69;56.36;100946.49;1764141;81;21047;-69
2021/11/23 04:58:07;;;;;;;10.32;6.62;;;;;;;2.73;56.39;100940.31;1764129;81;21576;-69
2021/11/23 05:00:35;;;;;;;11.97;6.65;;;;;;;2.78;56.47;100934.77;1764246;81;21038;-68
2021/11/23 05:03:02;;;;;;;11.05;6.70;;;;;;;2.73;56.72;100941.64;1764093;81;21568;-69
2021/11/23 05:05:29;;;;;;;12.60;7.03;;;;;;;2.76;56.77;100932.02;1764198;81;21388;-69
2021/11/23 05:07:56;;;;;;;13.68;7.30;;;;;;;2.81;56.77;100934.89;1764155;81;21035;-69
2021/11/23 05:10:23;;;;;;;14.40;7.37;;;;;;;2.82;56.66;100933.88;1764264;81;21498;-69
2021/11/23 05:12:50;;;;;;;10.80;6.60;;;;;;;2.81;56.59;100928.30;1764324;81;21522;-70
2021/11/23 05:15:16;;;;;;;15.80;7.65;;;;;;;2.79;56.56;100934.27;1763352;81;20954;-69
2021/11/23 05:17:45;;;;;;;12.93;7.37;;;;;;;2.77;56.49;100929.70;1764122;81;21145;-69
2021/11/23 05:20:11;;;;;;;11.45;6.83;;;;;;;2.72;56.34;100934.74;1757580;81;20991;-68
2021/11/23 05:22:40;;;;;;;14.25;7.92;;;;;;;2.61;56.35;100936.12;1742105;81;21423;-68
2021/11/23 05:25:09;;;;;;;16.15;8.63;;;;;;;2.51;56.36;100933.83;1733707;81;21079;-68
2021/11/23 05:27:36;;;;;;;17.70;7.92;;;;;;;2.39;56.50;100930.10;1733786;81;21066;-68
2021/11/23 05:30:06;;;;;;;13.40;7.70;;;;;;;2.29;56.63;100934.41;1733806;81;21140;-67
2021/11/23 05:32:33;;;;;;;12.47;7.50;;;;;;;2.10;56.97;100933.75;1733839;82;21056;-68
2021/11/23 05:34:59;;;;;;;11.55;6.80;;;;;;;1.97;57.33;100939.73;1733827;81;21189;-68
2021/11/23 05:37:26;;;;;;;10.15;6.08;;;;;;;1.99;57.58;100935.61;1733744;81;20959;-69
2021/11/23 05:39:52;;;;;;;8.95;5.28;;;;;;;2.07;57.74;100938.09;1733867;81;20999;-68
2021/11/23 05:42:19;;;;;;;9.00;5.50;;;;;;;2.16;57.74;100930.87;1733872;81;21184;-69
2021/11/23 05:44:46;;;;;;;9.10;5.33;;;;;;;2.11;57.71;100936.22;1733803;81;20944;-69
2021/11/23 05:47:13;;;;;;;11.93;5.42;;;;;;;2.06;57.78;100947.02;1733630;81;21044;-69
2021/11/23 05:49:41;;;;;;;7.87;4.90;;;;;;;2.00;57.90;100947.27;1733920;81;20984;-69
2021/11/23 05:52:08;;;;;;;9.60;4.72;;;;;;;1.98;57.95;100955.87;1733920;81;20996;-69
2021/11/23 05:54:36;;;;;;;7.97;4.28;;;;;;;1.95;58.00;100956.25;1733872;81;21033;-68
2021/11/23 05:57:04;;;;;;;7.33;4.67;;;;;;;1.87;58.10;100957.19;1733706;81;21027;-69
2021/11/23 05:59:30;;;;;;;9.40;5.40;;;;;;;1.78;58.15;100950.44;1733925;81;21593;-68
2021/11/23 06:01:57;;;;;;;8.93;4.95;;;;;;;1.71;58.16;100961.90;1733831;81;21020;-69
2021/11/23 06:04:24;;;;;;;9.53;5.50;;;;;;;1.69;58.08;100977.09;1744013;81;21038;-69
2021/11/23 06:06:51;;;;;;;7.83;5.00;;;;;;;1.62;58.12;100971.26;1763930;81;21176;-69
2021/11/23 06:09:19;;;;;;;9.88;5.22;;;;;;;1.52;58.47;100973.89;1763484;81;20987;-69
2021/11/23 06:11:46;;;;;;;8.73;5.03;;;;;;;1.56;58.59;100976.45;1764306;81;21544;-68
2021/11/23 06:14:13;;;;;;;9.63;5.67;;;;;;;1.58;58.60;100984.48;1763905;81;20990;-69
2021/11/23 06:16:45;;;;;;;10.08;5.03;;;;;;;1.59;58.75;100991.38;1764105;81;21575;-68
2021/11/23 06:19:09;;;;;;;8.10;4.60;;;;;;;1.61;58.88;100999.08;1763394;81;21425;-69
2021/11/23 06:21:36;;;;;;;9.53;5.30;;;;;;;1.64;58.98;101008.73;1751383;81;21527;-69
2021/11/23 06:24:04;;;;;;;12.13;6.40;;;;;;;1.72;58.99;101017.53;1736345;81;21056;-68
2021/11/23 06:26:31;;;;;;;11.70;6.45;;;;;;;1.83;58.97;101018.34;1746524;82;21576;-69
2021/11/23 06:28:58;;;;;;;13.20;7.08;;;;;;;1.91;58.74;101031.41;1746409;82;21648;-67
2021/11/23 06:31:25;;;;;;;18.42;9.73;;;;;;;2.02;58.29;101032.20;1746537;82;21299;-68
2021/11/23 06:33:55;;;;;;;16.42;8.78;;;;;;;2.12;57.90;101033.21;1746310;82;21491;-68
2021/11/23 06:36:21;;;;;;;14.80;9.08;;;;;;;2.16;57.72;101030.50;1746418;81;21075;-67
2021/11/23 06:38:50;;;;;;;13.05;7.90;;;;;;;2.19;57.70;101033.27;1746512;82;21050;-69
2021/11/23 06:41:19;;;;;;;12.37;7.15;;;;;;;2.19;57.62;101027.48;1746503;82;21529;-68
2021/11/23 06:43:46;;;;;;;15.20;7.50;;;;;;;2.14;57.31;101039.12;1746507;82;21122;-69
2021/11/23 06:46:13;;;;;;;12.20;7.58;;;;;;;2.13;57.11;101041.92;1746440;82;21023;-68
2021/11/23 06:48:41;;;;;;;11.93;7.20;;;;;;;2.16;56.87;101044.99;1746513;82;21450;-68
2021/11/23 06:51:08;;;;;;;14.07;7.40;;;;;;;2.13;56.81;101048.00;1746496;81;20956;-68
2021/11/23 06:53:35;;;;;;;12.75;7.80;;;;;;;2.10;56.61;101046.55;1746364;82;21701;-68
2021/11/23 06:56:04;;;;;;;14.47;7.62;;;;;;;2.11;56.48;101047.39;1746764;82;21912;-68
2021/11/23 06:58:33;;;;;;;12.00;8.33;;;;;;;2.13;56.29;101045.88;1749070;81;20987;-68
2021/11/23 07:01:01;;;;;;;14.65;8.80;;;;;;;2.20;55.98;101044.92;1760621;81;21097;-68
2021/11/23 07:03:28;;;;;;;18.45;10.53;;;;;;;2.26;55.96;101048.62;1733746;82;21059;-68
2021/11/23 07:05:55;;;;;;;17.00;10.95;;;;;;;2.33;55.91;101051.63;1733699;82;21046;-68
2021/11/23 07:08:22;;;;;;;15.85;9.90;;;;;;;2.39;55.86;101043.97;1733596;82;21150;-69
2021/11/23 07:10:50;;;;;;;16.50;10.75;;;;;;;2.46;55.76;101051.42;1733962;82;21349;-69
2021/11/23 07:13:17;;;;;;;18.52;9.60;;;;;;;2.54;55.64;101048.15;1733730;82;20955;-68
2021/11/23 07:15:45;;;;;;;24.63;11.68;;;;;;;2.62;55.42;101052.45;1733896;82;21218;-69
2021/11/23 07:18:12;;;;;;;38.63;13.98;;;;;;;2.71;55.24;101043.39;1733849;82;21529;-69
2021/11/23 07:20:40;;;;;;;47.48;13.60;;;;;;;2.79;54.97;101037.14;1769343;80;21186;-69
2021/11/23 07:23:07;;;;;;;20.88;11.05;;;;;;;2.86;54.74;101038.50;1756927;80;21140;-68
2021/11/23 07:25:33;;;;;;;21.33;9.40;;;;;;;2.88;54.58;101042.58;1783767;80;20995;-69
2021/11/23 07:28:00;;;;;;;18.55;9.60;;;;;;;2.88;54.39;101043.91;1783455;80;20968;-69
2021/11/23 07:30:27;;;;;;;18.82;9.63;;;;;;;2.91;54.14;101046.16;1783719;80;21000;-69
2021/11/23 07:32:55;;;;;;;17.60;10.35;;;;;;;2.99;54.09;101041.21;1783429;80;21365;-69
2021/11/23 07:35:21;;;;;;;18.55;10.55;;;;;;;3.09;54.16;101035.58;1783603;80;20976;-68
2021/11/23 07:37:49;;;;;;;20.00;11.05;;;;;;;3.24;54.00;101041.04;1783567;80;21173;-68
2021/11/23 07:40:16;;;;;;;18.12;11.20;;;;;;;3.41;53.74;101038.88;1783949;80;21424;-68
2021/11/23 07:42:44;;;;;;;22.58;13.18;;;;;;;3.55;53.37;101038.91;1783392;80;20988;-68
2021/11/23 07:45:11;;;;;;;21.07;12.53;;;;;;;3.64;53.09;101040.37;1783671;80;21139;-68
2021/11/23 07:47:38;;;;;;;19.37;13.20;;;;;;;3.74;52.87;101046.08;1783455;80;20984;-68
2021/11/23 07:50:08;;;;;;;23.10;13.65;;;;;;;3.86;52.79;101045.81;1783961;80;21095;-68
2021/11/23 07:52:36;;;;;;;23.77;14.28;;;;;;;3.95;52.75;101045.12;1783578;80;21495;-68
2021/11/23 07:55:05;;;;;;;20.08;12.70;;;;;;;4.05;52.55;101038.94;1783859;80;21086;-68
2021/11/23 07:57:33;;;;;;;17.32;11.20;;;;;;;4.15;52.40;101045.15;1783766;80;21145;-69
2021/11/23 08:00:00;;;;;;;18.50;11.80;;;;;;;4.27;52.16;101046.66;1783632;80;20944;-69
2021/11/23 08:02:27;;;;;;;17.55;11.08;;;;;;;4.37;51.93;101045.23;1760883;80;22188;-69
2021/11/23 08:04:53;;;;;;;17.30;11.00;;;;;;;4.39;51.62;101043.20;1760459;81;21558;-69
2021/11/23 08:07:21;;;;;;;14.53;9.68;;;;;;;4.40;51.43;101042.18;1761064;80;20949;-69
2021/11/23 08:09:49;;;;;;;17.23;10.78;;;;;;;4.39;51.33;101041.08;1759634;81;21145;-69
2021/11/23 08:12:16;;;;;;;15.20;10.90;;;;;;;4.37;51.18;101046.55;1757529;81;21077;-69
2021/11/23 08:14:44;;;;;;;12.80;8.68;;;;;;;4.36;51.32;101034.88;1763617;81;21109;-68
2021/11/23 08:17:11;;;;;;;13.48;8.48;;;;;;;4.38;51.11;101036.81;1764034;81;21180;-69
2021/11/23 08:19:38;;;;;;;13.05;8.78;;;;;;;4.33;51.15;101033.44;1764187;81;20992;-68
2021/11/23 08:22:04;;;;;;;14.13;8.65;;;;;;;4.28;51.16;101031.93;1764173;81;21171;-68
2021/11/23 08:24:31;;;;;;;12.58;8.48;;;;;;;4.26;51.31;101032.63;1764251;81;21094;-68
2021/11/23 08:26:59;;;;;;;14.13;9.35;;;;;;;4.32;51.49;101034.98;1763954;81;20999;-68
2021/11/23 08:29:26;;;;;;;14.73;9.55;;;;;;;4.40;51.58;101034.76;1763609;81;21108;-68
2021/11/23 08:31:55;;;;;;;11.12;7.50;;;;;;;4.55;51.61;101023.98;1764054;81;21088;-68
2021/11/23 08:34:22;;;;;;;13.98;9.20;;;;;;;4.69;51.27;101027.70;1764144;81;22361;-69
2021/11/23 08:36:49;;;;;;;15.28;9.08;;;;;;;4.78;51.28;101025.67;1763985;81;20951;-68
2021/11/23 08:39:16;;;;;;;15.80;10.18;;;;;;;4.89;51.15;101026.85;1764206;81;21449;-68
2021/11/23 08:41:43;;;;;;;14.93;9.25;;;;;;;5.00;51.04;101017.45;1763964;81;21493;-69
2021/11/23 08:44:10;;;;;;;16.80;9.63;;;;;;;5.13;50.98;101017.41;1764211;81;21385;-69
2021/11/23 08:46:38;;;;;;;13.30;9.40;;;;;;;5.24;50.64;101010.14;1764145;81;21149;-69
2021/11/23 08:49:05;;;;;;;16.65;10.00;;;;;;;5.26;50.19;101001.45;1763966;81;20955;-70
2021/11/23 08:51:35;;;;;;;14.07;8.73;;;;;;;5.18;50.26;101007.01;1764052;81;21132;-69
2021/11/23 08:53:59;;;;;;;14.23;8.45;;;;;;;5.15;50.35;101007.42;1763650;81;21077;-69
2021/11/23 08:56:32;;;;;;;10.78;7.50;;;;;;;5.16;50.52;101001.09;1764397;81;21513;-69
2021/11/23 08:58:57;;;;;;;18.32;10.45;;;;;;;5.30;50.56;100996.06;1763525;81;21877;-68
2021/11/23 09:01:26;;;;;;;17.55;10.95;;;;;;;5.46;50.62;100992.61;1764036;81;20997;-69
2021/11/23 09:03:54;;;;;;;16.70;8.78;;;;;;;5.62;50.57;100993.43;1764079;81;21180;-68
2021/11/23 09:06:24;;;;;;;12.40;8.05;;;;;;;5.70;50.29;100989.22;1764642;81;21040;-69
2021/11/23 09:08:57;;;;;;;11.85;7.00;;;;;;;5.81;50.19;100981.08;1764371;81;21045;-69
2021/11/23 09:11:26;;;;;;;11.40;7.30;;;;;;;5.98;49.41;100993.33;1764560;81;21042;-70
2021/11/23 09:13:56;;;;;;;11.85;6.92;;;;;;;5.98;48.89;100994.13;1767023;81;21077;-69
2021/11/23 09:16:22;;;;;;;8.88;5.92;;;;;;;5.90;48.86;100992.25;1765630;81;21053;-70
2021/11/23 09:18:49;;;;;;;10.70;6.33;;;;;;;5.78;48.67;100978.34;1764832;81;21122;-69
2021/11/23 09:21:16;;;;;;;8.65;5.60;;;;;;;5.67;48.75;100986.98;1764559;81;20968;-70
2021/11/23 09:23:43;;;;;;;11.73;5.97;;;;;;;5.60;49.05;100984.38;1764473;81;21077;-72
2021/11/23 09:26:10;;;;;;;12.53;6.25;;;;;;;5.61;49.26;100975.91;1764311;81;21578;-69
2021/11/23 09:28:38;;;;;;;12.47;6.92;;;;;;;5.60;49.15;100972.97;1763489;81;21046;-70
2021/11/23 09:31:05;;;;;;;12.93;7.37;;;;;;;5.62;49.39;100981.50;1764206;81;21077;-70
2021/11/23 09:33:33;;;;;;;10.58;6.70;;;;;;;5.68;49.33;100978.52;1753033;81;20995;-71
2021/11/23 09:36:01;;;;;;;11.15;6.83;;;;;;;5.66;49.22;100973.45;1760045;81;21159;-71
2021/11/23 09:38:30;;;;;;;10.88;6.47;;;;;;;5.67;49.57;100976.39;1765605;81;20933;-69
2021/11/23 09:40:57;;;;;;;8.13;5.72;;;;;;;5.72;49.53;100977.87;1767505;81;21022;-69
2021/11/23 09:43:30;;;;;;;9.93;5.90;;;;;;;5.69;49.05;100960.26;1767318;81;20995;-70
2021/11/23 09:46:07;;;;;;;10.78;6.42;;;;;;;5.62;49.29;100969.58;1767333;81;20990;-70
2021/11/23 09:48:38;;;;;;;9.73;5.78;;;;;;;5.59;49.52;100972.66;1765853;81;21482;-69
2021/11/23 09:51:06;;;;;;;8.75;6.08;;;;;;;5.57;49.43;100967.58;1762953;81;21375;-71
2021/11/23 09:53:33;;;;;;;9.83;6.05;;;;;;;5.57;49.61;100971.55;1763255;81;21029;-69
2021/11/23 09:56:00;;;;;;;11.68;6.50;;;;;;;5.56;49.39;100969.11;1734228;81;21533;-69
2021/11/23 09:58:27;;;;;;;10.40;5.67;;;;;;;5.49;49.40;100967.82;1764467;81;21006;-71
2021/11/23 10:00:59;;;;;;;8.78;5.20;;;;;;;5.47;49.42;100957.97;1763520;81;21077;-70
2021/11/23 10:03:30;;;;;;;8.70;5.30;;;;;;;5.49;49.66;100959.06;1729443;81;21050;-69
2021/11/23 10:06:14;;;;;;;8.53;4.78;;;;;;;5.57;49.81;100952.20;1756973;81;21170;-70
2021/11/23 10:08:43;;;;;;;7.85;4.37;;;;;;;5.56;49.35;100958.02;1763106;80;21464;-69
2021/11/23 10:11:21;;;;;;;8.28;5.00;;;;;;;5.48;49.57;100952.16;1782956;80;20996;-70
2021/11/23 10:13:51;;;;;;;7.70;5.15;;;;;;;5.45;49.79;100959.20;1783218;80;21165;-69
2021/11/23 10:16:18;;;;;;;8.83;5.65;;;;;;;5.44;49.85;100949.64;1773705;80;20953;-69
2021/11/23 10:18:49;;;;;;;8.00;5.10;;;;;;;5.45;49.90;100945.95;1756807;81;21072;-69
2021/11/23 10:21:15;;;;;;;9.03;5.28;;;;;;;5.44;49.56;100939.84;1757072;81;21002;-69
2021/11/23 10:23:48;;;;;;;7.35;4.67;;;;;;;5.45;49.51;100948.60;1775393;80;21015;-69
2021/11/23 10:26:28;;;;;;;7.25;4.83;;;;;;;5.44;49.92;100949.13;1760775;80;21084;-69
2021/11/23 10:29:02;;;;;;;6.62;4.10;;;;;;;5.50;50.08;100939.52;1757129;81;21015;-69
2021/11/23 10:31:40;;;;;;;6.37;3.90;;;;;;;5.58;49.92;100935.27;1757109;81;20948;-68
2021/11/23 10:34:33;;;;;;;7.65;4.83;;;;;;;5.71;49.74;100927.22;1758575;80;21442;-70
2021/11/23 10:37:29;;;;;;;8.83;4.35;;;;;;;5.87;49.33;100931.98;1776440;80;20943;-69
2021/11/23 10:40:17;;;;;;;6.80;4.10;;;;;;;5.99;48.85;100930.81;1784799;80;21100;-70
2021/11/23 10:42:52;;;;;;;6.50;4.03;;;;;;;6.07;48.21;100929.20;1785546;80;20936;-70
2021/11/23 10:45:22;;;;;;;6.58;4.22;;;;;;;6.21;48.34;100922.44;1785004;80;20980;-70
2021/11/23 10:47:50;;;;;;;6.97;4.47;;;;;;;6.37;48.26;100919.74;1729581;82;21489;-69
2021/11/23 10:50:23;;;;;;;5.90;4.20;;;;;;;6.44;47.60;100920.48;1750180;81;21130;-69
2021/11/23 10:52:51;;;;;;;9.50;4.95;;;;;;;6.45;47.54;100914.13;1755601;81;21812;-70
2021/11/23 10:55:31;;;;;;;8.08;4.53;;;;;;;6.40;47.31;100908.69;1747187;81;20959;-69
2021/11/23 10:58:04;;;;;;;6.42;4.33;;;;;;;6.30;47.25;100902.05;1740533;82;20964;-68
2021/11/23 11:00:39;;;;;;;7.42;4.30;;;;;;;6.34;47.60;100905.88;1740576;82;20996;-70
2021/11/23 11:03:08;;;;;;;8.10;4.60;;;;;;;6.33;47.63;100904.27;1741651;81;20944;-69
2021/11/23 11:05:41;;;;;;;8.00;4.50;;;;;;;6.34;47.73;100902.41;1741279;82;21116;-70
2021/11/23 11:08:09;;;;;;;6.47;4.17;;;;;;;6.40;47.77;100896.75;1757305;81;20963;-70
2021/11/23 11:10:40;;;;;;;6.25;3.58;;;;;;;6.45;47.59;100900.86;1757224;81;21018;-69
2021/11/23 11:13:11;;;;;;;7.50;4.05;;;;;;;6.47;47.50;100893.50;1757478;81;20979;-70
2021/11/23 11:15:46;;;;;;;4.97;3.30;;;;;;;6.45;47.38;100890.25;1759907;80;20913;-71
2021/11/23 11:18:17;;;;;;;5.40;3.80;;;;;;;6.40;47.45;100890.92;1742955;81;21182;-70
2021/11/23 11:21:06;;;;;;;4.92;3.20;;;;;;;6.45;47.54;100891.58;1759423;81;20931;-69
2021/11/23 11:23:42;;;;;;;6.28;3.65;;;;;;;6.50;47.63;100889.08;1760105;81;20912;-70
2021/11/23 11:26:24;;;;;;;6.40;4.25;;;;;;;6.53;47.60;100885.47;1760463;81;21130;-70
2021/11/23 11:29:00;;;;;;;7.90;4.90;;;;;;;6.52;47.57;100890.48;1760243;81;20992;-69
2021/11/23 11:31:47;;;;;;;8.40;4.42;;;;;;;6.46;47.51;100882.61;1760431;81;20925;-71
2021/11/23 11:34:23;;;;;;;6.40;3.70;;;;;;;6.43;47.71;100874.56;1760461;81;21006;-71